Баландино

Карта отелей и гостиниц, располагающихся рядом с аэропортом Баландино :

Баландино
Челябинск
Челябинская область 55° 18' 20.7612" N, 61° 30' 12.5388" E
Код аэродрома ИКАО
USCC
Код аэродрома RU
УСЦЦ
Координаты
N55.30577° E061.50348°
Превышение над уровнем моря
234
Основная полоса
09/27
Курс магнитный
090,3/270,3
Длина основной ВПП
3204
Ширина основной ВПП
60
Покрытие основной ВПП
Твёрдое
Освещение ВПП
Постоянное
Тип: 
Аэродром
Класс аэродрома: 
Международный
Принадлежность: 
ГА
Статус: 
Действующий
Сайт: 
www.aeroport-74.ru
Страна: 
Россия
Регион: 
Челябинская область
Город: 
Челябинск
Дополнительная информация: 
Оператор: ОАО «Челябинское авиапредприятие». Нкр.=(400)м.
Погода: 

Авиационная погода в Челябинске

Регион: 
Погода METAR: 
USCC 291030Z 28008G13MPS 9999 SCT040 22/05 Q1012 R27/000060 NOSIG RMK QFE739
Время наблюдения
2022-05-29T10:30:00Z
Температура C
22.0
Точка росы
5.0
Направление ветра
280
Скорость ветра (узлы)
16
Метео видимость
6.21
Облачность
SCT
Нижняя граница облачности (футы)
4000
Явления погоды
Условия полета
VFR
Аэропорт подробнее: 
SCT – разбросанная отдельная облачность;


Найти трансфер

С помощью этой формы Вы можете найти трансфер из аэропорта Баландино в город, аэропорт или вокзал:

Погода в аэропортах:

Авиационная погода в Москва - Домодедово

Погода METAR: 
UUDD 291030Z 25006G11MPS 170V270 9999 -SHRA BKN050CB 12/05 Q1012 R32L/290045 NOSIG
Время наблюдения
2022-05-29T10:30:00Z
Температура C
12.0
Точка росы
5.0
Направление ветра
250
Скорость ветра (узлы)
12
Метео видимость
6.21
Облачность
BKN
Нижняя граница облачности (футы)
5000
Явления погоды
-SHRA
Условия полета
VFR
Аэропорт подробнее: 
BKN – значительная (рассеянная, разорванная) облачность;
-SHRA - слабый ливневой дождь;

Авиационная погода в Миккели

Регион: 
Погода METAR: 
EFMI 291020Z AUTO 19006KT 160V230 9999 -SHRA //////CB 13/10 Q1004
Время наблюдения
2022-05-29T10:20:00Z
Температура C
13.0
Точка росы
10.0
Направление ветра
190
Скорость ветра (узлы)
6
Метео видимость
6.21
Облачность
Нижняя граница облачности (футы)
Явления погоды
-SHRA
Условия полета
-SHRA - слабый ливневой дождь;

Авиационная погода в аэропорту Имени Германа Титова

Регион: 
Погода METAR: 
UNBB 291030Z 31005MPS 9999 -RA BKN022 13/12 Q1015 R24/190058 NOSIG RMK QFE739
Время наблюдения
2022-05-29T10:30:00Z
Температура C
13.0
Точка росы
12.0
Направление ветра
310
Скорость ветра (узлы)
10
Метео видимость
6.21
Облачность
BKN
Нижняя граница облачности (футы)
2200
Явления погоды
-RA
Условия полета
MVFR
Аэропорт подробнее: 
BKN – значительная (рассеянная, разорванная) облачность;
-RA - слабый дождь;

Авиационная погода в Пулково

Регион: 
Погода METAR: 
ULLI 291030Z 30004MPS 9999 -SHRA SCT021CB BKN040 13/10 Q1006 R28L/290050 R28R/190055 NOSIG
Время наблюдения
2022-05-29T10:30:00Z
Температура C
13.0
Точка росы
10.0
Направление ветра
300
Скорость ветра (узлы)
8
Метео видимость
6.21
Облачность
SCT
BKN
Нижняя граница облачности (футы)
2100
4000
Явления погоды
-SHRA
Условия полета
VFR
Аэропорт подробнее: 
SCT – разбросанная отдельная облачность; BKN – значительная (рассеянная, разорванная) облачность;
-SHRA - слабый ливневой дождь;